EET,Max TemperatureF,Mean TemperatureF,Min TemperatureF,Max Dew PointF,MeanDew PointF,Min DewpointF,Max Humidity, Mean Humidity, Min Humidity, Max Sea Level PressureIn, Mean Sea Level PressureIn, Min Sea Level PressureIn, Max VisibilityMiles, Mean VisibilityMiles, Min VisibilityMiles, Max Wind SpeedMPH, Mean Wind SpeedMPH, Max Gust SpeedMPH,PrecipitationIn, CloudCover, Events, WindDirDegrees
2012-12-1,87,76,66,63,52,45,78,49,24,30.06,30.02,29.98,6,6,6,18,8,,0.00,3,,3
2012-12-2,89,78,66,57,51,43,68,44,27,30.04,30.00,29.98,6,6,6,12,7,,0.00,3,,348
2012-12-3,84,75,66,57,53,43,68,50,28,29.98,29.94,29.86,,,,15,10,,0.00,,,4
2012-12-4,80,71,62,55,50,36,72,48,30,29.89,29.80,29.74,6,6,6,12,5,,0.00,6,,344
2012-12-5,75,68,62,52,46,37,68,44,31,29.92,29.85,29.80,6,6,6,13,6,,0.00,6,,346
2012-12-6,82,71,60,52,48,45,59,47,28,30.01,29.96,29.92,6,6,6,8,4,,0.00,3,,337
2012-12-7,84,73,62,52,49,46,64,46,28,30.01,29.95,29.92,6,6,6,8,5,,0.00,1,,350
2012-12-8,80,72,64,50,45,39,56,41,23,30.04,29.98,29.95,,,,16,8,,0.00,,,2
2012-12-9,80,72,64,52,45,39,60,43,32,30.01,29.94,29.89,6,6,6,8,5,,0.00,6,,349
2012-12-10,84,72,60,61,44,25,72,42,15,29.92,29.87,29.80,6,6,6,16,5,,0.00,6,,292
2012-12-11,75,68,60,41,37,32,42,33,25,30.06,30.01,29.92,6,6,6,22,9,,0.00,1,,338
2012-12-12,82,70,59,46,39,34,48,37,19,30.09,30.01,29.95,,,,13,7,,0.00,,,350
2012-12-13,77,68,60,46,40,36,52,37,25,30.04,30.01,29.98,,,,18,9,,0.00,,,1
2012-12-14,77,68,60,46,40,36,46,37,29,30.12,30.06,30.04,6,6,6,16,11,,0.00,1,,7
2012-12-15,78,69,60,46,42,37,52,39,28,30.06,30.01,29.95,6,6,6,18,11,,0.00,5,,12
2012-12-16,77,68,60,43,39,36,48,36,24,30.09,30.04,29.98,,,,21,13,,0.00,,,3
2012-12-17,78,68,57,43,38,32,52,37,24,30.06,30.03,29.98,,,,14,8,,0.00,,,353
2012-12-18,80,70,59,43,40,34,48,37,23,30.01,29.98,29.95,,,,9,6,,0.00,,,347
2012-12-19,82,70,57,46,42,30,63,40,20,30.04,29.96,29.89,,,,10,4,,0.00,,,276
2012-12-20,75,70,64,43,35,30,43,31,19,29.92,29.88,29.83,6,6,6,18,9,,0.00,1,,268
2012-12-21,77,68,59,36,33,30,42,30,18,30.01,29.93,29.89,6,6,5,17,10,,0.00,1,,278
2012-12-22,77,68,57,45,39,36,55,39,26,30.06,30.02,29.98,6,6,6,12,5,,0.00,2,,343
2012-12-23,80,68,55,50,45,41,68,50,28,30.04,30.00,29.95,6,6,6,7,3,,0.00,1,,272
2012-12-24,82,68,55,52,41,25,67,44,15,29.98,29.93,29.89,6,6,6,10,4,,0.00,1,,278
2012-12-25,75,67,59,45,42,37,55,42,29,30.15,30.05,29.92,6,6,6,18,8,,0.00,2,,354
2012-12-26,77,68,59,48,43,37,55,43,32,30.21,30.15,30.12,,,,22,9,,0.00,,,5
2012-12-27,78,68,59,50,45,39,59,46,30,30.18,30.11,30.06,,,,13,8,,0.00,,,357
2012-12-28,78,68,59,50,47,45,59,49,34,30.06,30.02,29.98,6,6,6,12,6,,0.00,1,,359
2012-12-29,80,70,59,48,45,41,55,45,28,29.98,29.95,29.89,,,,8,6,,0.00,,,358
2012-12-30,77,68,59,48,44,39,59,45,31,30.04,30.01,29.98,,,,13,8,,0.00,,,351
2012-12-31,82,70,59,50,45,39,63,45,21,30.04,30.01,29.98,,,,12,6,,0.00,,,350